AirNav   Pilot Hours Calculator
 
 1168 users online  

4WA4 Windsock Airport
Lopez, Washington, USA

GOING TO LOPEZ?


FAA INFORMATION EFFECTIVE 22 APRIL 2021

Location

FAA Identifier: 4WA4
Lat/Long: 48-32-29.3640N 122-53-14.6430W
48-32.489400N 122-53.244050W
48.5414900,-122.8874008
(estimated)
Elevation: 30 ft. / 9 m (estimated)
Variation: 21E (1985)
From city: 4 miles SW of LOPEZ, WA
Time zone: UTC -7 (UTC -8 during Standard Time)
Zip code: 98261

Airport Operations

Airport use: Private use. Permission required prior to landing
Activation date: 05/1975
Control tower: no
ARTCC: SEATTLE CENTER
FSS: SEATTLE FLIGHT SERVICE STATION
Attendance: CONTINUOUS
Wind indicator: yes
Segmented circle: yes
Landing fee: yes

Airport Communications

WX ASOS at FHR (6 nm W): 135.675 (360-378-8491)
WX AWOS-3 at ORS (10 nm N): 135.425 (360-376-6045)
WX ASOS at NUW (15 nm SE): PHONE 360-257-8813
WX AWOS-3 at BVS (19 nm E): 121.125 (360-757-7767)
WX AWOS-3 at OKH (19 nm SE): 132.775 (360-675-8431)

Nearby radio navigation aids

VOR radial/distance  VOR name  Freq  Var
CVVr321/19.0PENN COVE VOR/DME117.2019E
YYJr098/26.2VICTORIA VOR/DME113.7017E
HUHr187/27.1WHATCOM VORTAC113.0020E
YVRr145/33.8VANCOUVER VOR/DME115.9017E

 
NDB name  Hdg/Dist  Freq  Var  ID
FRIDAY HARBOR055/5.728417EFHR ..-. .... .-.
SKAGIT/BAY VIEW267/19.124016EBVS -... ...- ...
EDIZ HOOK023/31.733817ENOW -. --- .--

Airport Services

Runway Information

Runway 2/20

Dimensions: 1850 x 75 ft. / 564 x 23 m
Surface: turf
RUNWAY 2  RUNWAY 20
Traffic pattern: leftright
Obstructions: 4 ft. fence4 ft. fence, marked and lighted

Airport Ownership and Management from official FAA records

Ownership: Privately-owned
Owner: L DWIGHT LEWIS JR
200 DAISY LANE
LOPEZ ISLAND, WA 98261
Phone (360) 468-2412
Manager: L DWIGHT LEWIS JR
200 DAISY LANE
LOPEZ ISLAND, WA 98261
Phone (360) 468-2412

Airport Operational Statistics

Aircraft based on the field: 1
Single engine airplanes: 1
    

Additional Remarks

DEER MAY BE ON RWY.
FOR CD CTC SEATTLE ARTCC AT 253-351-3694.

Instrument Procedures

There are no published instrument procedures at 4WA4.

Some nearby airports with instrument procedures:

KFHR - Friday Harbor Airport (6 nm W)
KORS - Orcas Island Airport (10 nm N)
KNUW - Whidbey Island Naval Air Station (Ault Field) (15 nm SE)
KBVS - Skagit Regional Airport (19 nm E)
KOKH - AJ Eisenberg Airport (19 nm SE)
 
Loc | Ops | Rwys | IFR | FBO | Links
Com | Nav | Svcs | Stats | Notes
Area around 4WA4 (Windsock Airport)
 
Road maps at: MapQuest Bing Google
 
Aerial photo
WARNING: Photo may not be current or correct
Aerial photo of 4WA4 (Windsock Airport)
Do you have a better or more recent aerial photo of Windsock Airport that you would like to share? If so, please send us your photo.

 
Sectional chart

 
Airport distance calculator
Flying to Windsock Airport? Find the distance to fly.

From to 4WA4

Sunrise and sunset
Times for 13-May-2021
 Local
(UTC-7)
 Zulu
(UTC)
Morning civil twilight04:5711:57
Sunrise05:3412:34
Sunset20:4103:41
Evening civil twilight21:1904:19

Current date and time
Zulu (UTC)  13-May-2021 13:00:11
Local (UTC-7)  13-May-2021 06:00:11
 
METAR
KFHR 
6nm W 
131253Z AUTO 00000KT M1/4SM FG VV002 06/06 A3022 RMK AO2 SLP235 T00610061 TSNO
KORS 
10nm N 
131255Z AUTO 00000KT 10SM CLR 09/09 A3021 RMK AO2
CWZO 
14nm W 
131200Z AUTO 19002KT RMK AO1
CWEZ 
15nm NW 
131200Z AUTO 24006KT 09/08 RMK AO1 SLP226 T00940083 53005
KNUW 
15nm SE 
131156Z 22004KT 1/8SM FG OVC003 09/08 A3025 RMK AO2 SFC VIS 1/4 SLP244 T00890078 10100 20089 53002 $
CWYJ 
17nm W 
131200Z AUTO 00000KT 07/07 RMK AO1 SLP232 T00670067 53005
CWLM 
19nm SW 
131200Z AUTO 25001KT 09/08 RMK AO1 SLP230 T00890082 53005
CYWH 
19nm SW 
130400Z 23006KT 15SM SCT070 11/09 A3018 RMK AC3 LAST STFD OBS/ NEXT 131300Z SLP220
KBVS 
19nm E 
131235Z AUTO 00000KT M1/4SM FG OVC002 08/08 A3022 RMK A01
TAF
KNUW 
15nm SE 
1307/1407 28006KT 3200 BR BCFG BKN005 BKN010 OVC030 QNH3018INS TEMPO 1307/1313 0800 FG OVC005 FM131800 30008KT 9999 FEW010 SCT030 BKN200 QNH3009INS T09/1313Z T17/1323Z FS30173
CYWH 
19nm SW 
122038Z 1221/1304 VRB03KT P6SM BKN040 RMK NXT FCST WILL BE ISSUED AT 131415Z
NOTAMs
Click for the latest NOTAMs
NOTAMs are issued by the DoD/FAA and will open in a separate window not controlled by AirNav.

 

 
 

Would you like to see your business listed on this page?

 If your business provides an interesting product or service to pilots, flight crews, aircraft, or users of the Windsock Airport, you should consider listing it here.  To start the listing process, click on the button below
 
Add a business
 

Other Pages about Windsock Airport

Update a link
 
Copyright © AirNav, LLC. All rights reserved. Privacy Policy  Contact